Time;durP1;ratioP1;P1;durP2;ratioP2;P2;SDS_P1;SDS_P2;PMS_P1;PMS_P2;Temp;Humidity;BMP_temperature;BMP_pressure;BME280_temperature;BME280_humidity;BME280_pressure;Samples;Min_cycle;Max_cycle;Signal;HPM_P1;HPM_P2
2023/02/19 00:01:20;;;;;;;3.63;3.07;;;8.00;99.90;;;;;;5022092;28;20432;-57
2023/02/19 00:03:51;;;;;;;5.57;3.40;;;8.00;99.90;;;;;;5027500;28;20541;-57
2023/02/19 00:06:18;;;;;;;5.00;3.17;;;8.00;99.90;;;;;;5029914;28;20807;-57
2023/02/19 00:08:43;;;;;;;3.60;3.03;;;7.90;99.90;;;;;;5032035;28;21128;-57
2023/02/19 00:11:14;;;;;;;4.50;3.30;;;7.90;99.90;;;;;;5028351;28;20458;-60
2023/02/19 00:13:42;;;;;;;7.23;4.63;;;7.90;99.90;;;;;;5028584;28;20199;-57
2023/02/19 00:16:11;;;;;;;5.77;3.87;;;7.90;99.90;;;;;;5029526;28;20519;-57
2023/02/19 00:18:36;;;;;;;5.07;3.17;;;7.80;99.90;;;;;;5023501;28;20869;-58
2023/02/19 00:21:03;;;;;;;3.70;3.20;;;7.90;99.90;;;;;;5027050;28;20473;-56
2023/02/19 00:23:29;;;;;;;2.80;2.60;;;7.80;99.90;;;;;;5030539;28;20606;-57
2023/02/19 00:25:54;;;;;;;3.90;2.90;;;7.80;99.90;;;;;;5028864;28;20454;-57
2023/02/19 00:28:21;;;;;;;4.17;2.93;;;7.80;99.90;;;;;;5039108;28;20483;-58
2023/02/19 00:30:47;;;;;;;4.20;2.90;;;7.80;99.90;;;;;;5014737;28;20183;-59
2023/02/19 00:33:13;;;;;;;3.27;2.87;;;7.70;99.90;;;;;;5023915;28;20486;-58
2023/02/19 00:35:38;;;;;;;3.80;2.70;;;7.70;99.90;;;;;;5024161;28;20458;-57
2023/02/19 00:38:04;;;;;;;3.73;2.40;;;7.60;99.90;;;;;;5031128;28;20175;-58
2023/02/19 00:40:29;;;;;;;4.47;2.97;;;7.60;99.90;;;;;;5036700;28;20333;-57
2023/02/19 00:42:55;;;;;;;4.90;2.87;;;7.70;99.90;;;;;;5027715;28;20762;-57
2023/02/19 00:45:21;;;;;;;3.10;2.80;;;7.70;99.90;;;;;;5030093;28;20176;-57
2023/02/19 00:47:47;;;;;;;3.20;2.90;;;7.70;99.90;;;;;;5032965;28;20453;-57
2023/02/19 00:50:12;;;;;;;4.73;3.00;;;7.70;99.90;;;;;;5036661;28;20254;-55
2023/02/19 00:52:38;;;;;;;3.03;2.37;;;7.80;99.90;;;;;;5024171;28;20286;-57
2023/02/19 00:55:04;;;;;;;3.13;2.73;;;7.80;99.90;;;;;;5026740;28;20196;-58
2023/02/19 00:57:29;;;;;;;5.20;2.83;;;7.80;99.90;;;;;;5026709;28;20330;-57
2023/02/19 00:59:55;;;;;;;2.80;2.60;;;7.70;99.90;;;;;;5027222;28;20183;-57
2023/02/19 01:02:21;;;;;;;3.10;2.57;;;7.80;99.90;;;;;;5027295;28;20172;-57
2023/02/19 01:04:46;;;;;;;3.53;2.30;;;7.70;99.90;;;;;;5032207;28;20775;-57
2023/02/19 01:07:12;;;;;;;3.87;2.80;;;7.80;99.90;;;;;;5020288;28;20192;-57
2023/02/19 01:09:37;;;;;;;3.10;2.70;;;7.80;99.90;;;;;;5020991;28;20589;-57
2023/02/19 01:12:06;;;;;;;3.77;2.77;;;7.70;99.90;;;;;;5026752;28;20195;-57
2023/02/19 01:14:32;;;;;;;2.87;2.50;;;7.80;99.90;;;;;;5022423;28;20318;-57
2023/02/19 01:16:58;;;;;;;3.37;2.47;;;7.80;99.90;;;;;;5023908;28;20537;-57
2023/02/19 01:19:24;;;;;;;3.30;2.40;;;7.80;99.90;;;;;;5029201;28;20562;-57
2023/02/19 01:21:49;;;;;;;3.07;2.53;;;7.90;99.90;;;;;;5024576;28;20443;-59
2023/02/19 01:24:15;;;;;;;2.90;2.63;;;7.90;99.90;;;;;;5027714;28;21081;-57
2023/02/19 01:26:42;;;;;;;3.40;2.73;;;7.90;99.90;;;;;;5022106;28;20197;-57
2023/02/19 01:29:08;;;;;;;3.13;2.83;;;7.90;99.90;;;;;;5028482;28;20250;-57
2023/02/19 01:31:34;;;;;;;3.80;2.37;;;7.90;99.90;;;;;;5026979;28;20542;-57
2023/02/19 01:34:01;;;;;;;5.53;2.93;;;7.90;99.90;;;;;;5027346;28;20938;-57
2023/02/19 01:36:28;;;;;;;2.20;2.10;;;7.90;99.90;;;;;;5027654;28;20206;-57
2023/02/19 01:38:54;;;;;;;2.60;2.30;;;7.90;99.90;;;;;;5027966;28;20430;-57
2023/02/19 01:41:23;;;;;;;2.97;2.57;;;7.90;99.90;;;;;;5024216;28;20431;-57
2023/02/19 01:44:03;;;;;;;4.10;2.67;;;7.90;99.60;;;;;;5024992;28;20514;-57
2023/02/19 01:46:33;;;;;;;2.70;2.50;;;8.00;99.20;;;;;;5025881;28;20458;-57
2023/02/19 01:49:22;;;;;;;2.53;2.30;;;8.00;98.70;;;;;;5024347;28;20438;-57
2023/02/19 01:51:57;;;;;;;2.50;2.30;;;8.00;98.20;;;;;;5021576;28;20449;-57
2023/02/19 01:54:27;;;;;;;2.33;2.20;;;8.10;97.30;;;;;;5026645;28;20429;-56
2023/02/19 01:56:54;;;;;;;2.37;2.17;;;8.10;96.50;;;;;;5023114;28;20442;-57
2023/02/19 01:59:20;;;;;;;2.77;2.50;;;8.10;96.00;;;;;;5022281;28;20422;-57
2023/02/19 02:01:46;;;;;;;2.40;2.27;;;8.10;95.40;;;;;;5009287;28;20433;-57
2023/02/19 02:04:13;;;;;;;2.87;2.43;;;8.10;95.10;;;;;;5030994;28;20422;-58
2023/02/19 02:06:52;;;;;;;2.50;2.30;;;8.20;94.90;;;;;;5033320;28;20196;-58
2023/02/19 02:12:04;;;;;;;3.10;2.33;;;8.20;93.40;;;;;;5023087;28;20822;-58
2023/02/19 02:14:34;;;;;;;2.40;2.20;;;8.20;92.90;;;;;;5012895;28;20959;-57
2023/02/19 02:17:38;;;;;;;2.87;2.30;;;8.20;92.60;;;;;;5029311;28;20202;-57
2023/02/19 02:20:22;;;;;;;2.90;2.70;;;8.30;92.30;;;;;;5030472;28;20448;-57
2023/02/19 02:23:21;;;;;;;2.43;2.20;;;8.30;91.50;;;;;;5034564;28;20425;-58
2023/02/19 02:25:55;;;;;;;3.67;2.50;;;8.30;91.80;;;;;;5038685;28;20488;-57
2023/02/19 02:28:33;;;;;;;2.60;2.40;;;8.30;91.90;;;;;;5028017;28;20448;-57
2023/02/19 02:31:04;;;;;;;3.23;2.30;;;8.30;91.80;;;;;;5036159;28;20793;-57
2023/02/19 02:33:36;;;;;;;1.97;1.83;;;8.30;91.90;;;;;;5003767;28;20557;-57
2023/02/19 02:36:05;;;;;;;3.67;2.30;;;8.30;91.90;;;;;;5023983;28;20488;-57
2023/02/19 02:38:35;;;;;;;2.20;2.10;;;8.30;91.60;;;;;;5027832;28;20491;-57
2023/02/19 02:41:02;;;;;;;4.60;2.07;;;8.30;91.50;;;;;;5028693;28;20429;-57
2023/02/19 02:43:28;;;;;;;3.80;2.80;;;8.30;91.50;;;;;;5023343;28;20445;-58
2023/02/19 02:45:53;;;;;;;2.37;2.17;;;8.30;91.50;;;;;;5026495;28;20445;-59
2023/02/19 02:48:28;;;;;;;6.10;2.10;;;8.30;91.60;;;;;;5027112;28;20183;-57
2023/02/19 02:51:03;;;;;;;3.00;2.60;;;8.40;91.60;;;;;;5028684;28;20262;-57
2023/02/19 02:56:26;;;;;;;3.60;2.40;;;8.40;91.30;;;;;;5022817;28;20791;-57
2023/02/19 02:58:52;;;;;;;4.73;2.60;;;8.40;90.50;;;;;;5026103;28;20418;-58
2023/02/19 03:04:23;;;;;;;3.20;2.87;;;8.40;90.90;;;;;;5023868;28;20438;-57
2023/02/19 03:06:49;;;;;;;4.70;2.50;;;8.40;90.60;;;;;;5028219;28;20454;-58
2023/02/19 03:09:39;;;;;;;2.93;2.40;;;8.50;90.30;;;;;;5027397;28;20430;-57
2023/02/19 03:20:43;;;;;;;2.63;2.43;;;8.60;89.70;;;;;;5022069;28;20980;-57
2023/02/19 03:23:10;;;;;;;3.13;2.23;;;8.60;87.50;;;;;;5023966;28;20799;-57
2023/02/19 03:29:21;;;;;;;3.67;2.63;;;8.60;86.50;;;;;;5028565;28;20461;-57
2023/02/19 03:31:17;;;;;;;2.53;2.33;;;8.70;87.40;;;;;;5025329;28;20890;-57
2023/02/19 03:33:46;;;;;;;5.20;2.87;;;8.70;90.00;;;;;;5006716;28;20462;-58
2023/02/19 03:36:14;;;;;;;2.23;2.13;;;8.70;90.90;;;;;;5024343;28;20910;-57
2023/02/19 03:38:50;;;;;;;2.73;1.90;;;8.70;91.50;;;;;;5030228;28;20437;-58
2023/02/19 03:41:30;;;;;;;2.20;2.10;;;8.70;91.20;;;;;;5026261;28;20531;-57
2023/02/19 03:44:37;;;;;;;2.10;2.00;;;8.70;91.10;;;;;;5013704;28;20434;-58
2023/02/19 03:47:08;;;;;;;2.77;2.47;;;8.70;91.00;;;;;;4945185;28;20438;-57
2023/02/19 03:49:41;;;;;;;2.20;2.00;;;8.60;90.60;;;;;;5010308;28;20434;-57
2023/02/19 03:52:29;;;;;;;2.27;2.07;;;8.70;90.60;;;;;;5036165;28;20457;-57
2023/02/19 03:55:12;;;;;;;2.93;2.50;;;8.70;90.70;;;;;;5029756;28;20515;-57
2023/02/19 03:57:52;;;;;;;2.00;1.90;;;8.60;90.70;;;;;;5034107;28;20527;-59
2023/02/19 04:00:33;;;;;;;2.40;2.20;;;8.60;90.70;;;;;;5021758;28;21552;-57
2023/02/19 04:03:07;;;;;;;2.30;2.10;;;8.60;91.00;;;;;;5023807;28;20438;-58
2023/02/19 04:05:38;;;;;;;4.00;2.03;;;8.60;91.30;;;;;;5007310;28;20431;-57
2023/02/19 04:08:12;;;;;;;1.93;1.83;;;8.50;91.50;;;;;;5031141;28;20883;-59
2023/02/19 04:10:39;;;;;;;2.57;2.30;;;8.50;91.70;;;;;;5029577;28;20430;-57
2023/02/19 04:13:16;;;;;;;2.80;2.10;;;8.50;91.80;;;;;;5024749;28;20450;-57
2023/02/19 04:15:44;;;;;;;2.80;1.93;;;8.50;91.90;;;;;;5026612;28;20450;-58
2023/02/19 04:18:23;;;;;;;2.53;2.30;;;8.50;92.10;;;;;;5020093;28;20513;-57
2023/02/19 04:20:49;;;;;;;3.40;2.07;;;8.50;92.10;;;;;;5025974;28;20958;-56
2023/02/19 04:23:19;;;;;;;2.17;1.70;;;8.50;92.40;;;;;;5014770;28;20458;-58
2023/02/19 04:25:48;;;;;;;2.20;2.00;;;8.50;92.70;;;;;;5024069;28;20563;-57
2023/02/19 04:28:16;;;;;;;2.10;1.97;;;8.50;92.90;;;;;;5021953;28;20489;-57
2023/02/19 04:30:42;;;;;;;3.20;2.30;;;8.60;92.90;;;;;;5026857;28;20484;-58
2023/02/19 04:33:08;;;;;;;3.00;1.80;;;8.60;92.80;;;;;;5024495;28;20462;-57
2023/02/19 04:35:33;;;;;;;3.47;1.97;;;8.60;93.00;;;;;;5031476;28;20504;-57
2023/02/19 04:37:59;;;;;;;2.17;1.97;;;8.60;93.00;;;;;;5026403;28;20172;-58
2023/02/19 04:40:25;;;;;;;2.80;2.17;;;8.60;93.00;;;;;;5024928;28;20176;-58
2023/02/19 04:42:51;;;;;;;2.17;2.07;;;8.60;92.70;;;;;;5026832;28;20878;-57
2023/02/19 04:45:17;;;;;;;2.00;1.90;;;8.60;92.90;;;;;;5023780;28;20926;-57
2023/02/19 04:47:43;;;;;;;2.20;2.00;;;8.60;93.00;;;;;;5027105;28;20948;-58
2023/02/19 04:50:08;;;;;;;3.10;2.57;;;8.60;93.30;;;;;;5027308;28;20183;-56
2023/02/19 04:52:34;;;;;;;2.00;1.73;;;8.60;93.20;;;;;;5011888;28;20207;-57
2023/02/19 04:55:00;;;;;;;1.93;1.83;;;8.60;93.10;;;;;;5024819;28;20183;-57
2023/02/19 04:57:25;;;;;;;1.97;1.77;;;8.60;93.10;;;;;;5006498;28;20226;-57
2023/02/19 04:59:51;;;;;;;4.40;1.90;;;8.60;92.80;;;;;;5025797;28;20176;-58
2023/02/19 05:02:17;;;;;;;2.00;1.90;;;8.60;92.60;;;;;;5006861;28;20176;-57
2023/02/19 05:04:43;;;;;;;1.70;1.60;;;8.50;92.70;;;;;;5026905;28;20445;-57
2023/02/19 05:07:08;;;;;;;1.97;1.70;;;8.60;93.30;;;;;;5023790;28;20195;-58
2023/02/19 05:09:34;;;;;;;2.50;1.70;;;8.60;93.60;;;;;;5023833;28;20179;-57
2023/02/19 05:11:59;;;;;;;1.63;1.53;;;8.60;93.70;;;;;;5022297;28;20203;-58
2023/02/19 05:14:25;;;;;;;1.73;1.50;;;8.60;93.70;;;;;;5025008;28;20172;-57
2023/02/19 05:16:50;;;;;;;2.27;1.83;;;8.60;93.60;;;;;;5023482;28;21307;-57
2023/02/19 05:19:16;;;;;;;2.03;1.93;;;8.60;93.70;;;;;;5026934;28;20174;-55
2023/02/19 05:21:42;;;;;;;2.23;1.70;;;8.60;94.00;;;;;;5023936;28;20214;-57
2023/02/19 05:24:07;;;;;;;1.80;1.70;;;8.60;94.00;;;;;;5024963;28;20176;-58
2023/02/19 05:26:33;;;;;;;2.53;2.03;;;8.60;94.10;;;;;;5015920;28;20200;-58
2023/02/19 05:28:59;;;;;;;2.20;2.00;;;8.60;94.30;;;;;;5025961;28;20176;-57
2023/02/19 05:31:25;;;;;;;2.20;1.83;;;8.60;94.30;;;;;;5024799;28;20425;-57
2023/02/19 05:33:51;;;;;;;2.20;1.90;;;8.60;94.30;;;;;;5024160;28;20461;-57
2023/02/19 05:36:19;;;;;;;1.73;1.63;;;8.60;94.40;;;;;;5031482;28;20421;-58
2023/02/19 05:38:45;;;;;;;2.00;1.73;;;8.50;94.20;;;;;;5043088;28;20412;-57
2023/02/19 05:41:16;;;;;;;1.70;1.60;;;8.50;94.40;;;;;;5015264;28;20418;-57
2023/02/19 05:43:44;;;;;;;3.03;1.77;;;8.60;94.70;;;;;;5024247;28;20975;-57
2023/02/19 05:46:12;;;;;;;1.87;1.77;;;8.60;94.90;;;;;;5023635;28;20470;-57
2023/02/19 05:48:37;;;;;;;3.33;2.50;;;8.50;95.00;;;;;;5026957;28;20430;-57
2023/02/19 05:51:05;;;;;;;2.33;2.00;;;8.50;95.20;;;;;;5023354;28;20426;-58
2023/02/19 05:53:31;;;;;;;1.70;1.60;;;8.50;95.40;;;;;;5020682;28;20207;-57
2023/02/19 05:55:57;;;;;;;1.60;1.50;;;8.50;95.50;;;;;;5021396;28;21321;-58
2023/02/19 05:58:23;;;;;;;1.77;1.67;;;8.50;95.30;;;;;;5025675;28;20414;-58
2023/02/19 06:00:48;;;;;;;1.80;1.70;;;8.50;95.30;;;;;;5022064;28;20431;-57
2023/02/19 06:03:14;;;;;;;1.93;1.80;;;8.50;95.40;;;;;;5033306;28;20179;-58
2023/02/19 06:05:40;;;;;;;1.53;1.43;;;8.50;95.50;;;;;;5042106;28;20191;-58
2023/02/19 06:08:05;;;;;;;1.70;1.60;;;8.50;95.60;;;;;;5031240;28;20218;-57
2023/02/19 06:10:31;;;;;;;1.73;1.63;;;8.60;95.60;;;;;;5019783;28;20180;-58
2023/02/19 06:12:56;;;;;;;1.93;1.80;;;8.60;95.80;;;;;;5016657;28;20580;-58
2023/02/19 06:15:22;;;;;;;2.10;1.57;;;8.60;95.80;;;;;;5026718;28;20207;-58
2023/02/19 06:17:48;;;;;;;1.70;1.60;;;8.60;95.70;;;;;;5024992;28;20606;-59
2023/02/19 06:20:14;;;;;;;1.80;1.70;;;8.60;95.80;;;;;;5023657;28;20172;-55
2023/02/19 06:22:39;;;;;;;1.63;1.53;;;8.60;96.10;;;;;;5023296;28;20212;-58
2023/02/19 06:25:06;;;;;;;1.90;1.80;;;8.60;96.30;;;;;;5022047;28;20472;-58
2023/02/19 06:27:32;;;;;;;1.70;1.50;;;8.60;96.30;;;;;;5025203;28;20338;-58
2023/02/19 06:29:58;;;;;;;1.73;1.63;;;8.50;96.20;;;;;;5016019;28;20901;-58
2023/02/19 06:32:23;;;;;;;1.33;1.33;;;8.60;96.30;;;;;;5025511;28;20195;-58
2023/02/19 06:34:49;;;;;;;1.60;1.50;;;8.60;96.00;;;;;;5034953;28;20175;-58
2023/02/19 06:37:15;;;;;;;1.80;1.70;;;8.60;95.80;;;;;;5021163;28;20192;-58
2023/02/19 06:39:40;;;;;;;1.93;1.60;;;8.60;95.90;;;;;;5026821;28;20183;-58
2023/02/19 06:42:06;;;;;;;1.80;1.70;;;8.60;95.90;;;;;;5025101;28;20259;-58
2023/02/19 06:44:31;;;;;;;1.80;1.70;;;8.60;95.90;;;;;;5027412;28;20180;-58
2023/02/19 06:46:57;;;;;;;2.00;1.80;;;8.70;95.60;;;;;;5035359;28;20207;-58
2023/02/19 06:49:23;;;;;;;1.70;1.60;;;8.70;94.80;;;;;;5029792;28;20191;-58
2023/02/19 06:51:48;;;;;;;2.53;2.20;;;8.70;94.40;;;;;;5042079;28;20171;-59
2023/02/19 06:54:14;;;;;;;2.13;2.03;;;8.70;94.20;;;;;;5029390;28;20191;-58
2023/02/19 06:56:41;;;;;;;1.77;1.67;;;8.70;93.60;;;;;;5014536;28;20195;-58
2023/02/19 06:59:12;;;;;;;1.60;1.50;;;8.70;93.60;;;;;;5031599;28;20607;-58
2023/02/19 07:01:39;;;;;;;1.87;1.77;;;8.70;93.30;;;;;;5038873;28;20509;-57
2023/02/19 07:04:06;;;;;;;1.60;1.50;;;8.70;93.20;;;;;;5026687;28;20426;-58
2023/02/19 07:06:32;;;;;;;1.90;1.80;;;8.80;93.30;;;;;;5026306;28;20463;-58
2023/02/19 07:08:58;;;;;;;1.60;1.50;;;8.70;92.70;;;;;;5022127;28;20434;-57
2023/02/19 07:11:25;;;;;;;1.70;1.60;;;8.70;91.60;;;;;;5022794;28;21093;-58
2023/02/19 07:13:58;;;;;;;1.40;1.30;;;8.80;90.60;;;;;;5025338;28;20466;-58
2023/02/19 07:16:24;;;;;;;1.40;1.30;;;8.80;90.20;;;;;;5023435;28;20467;-56
2023/02/19 07:18:50;;;;;;;1.30;1.20;;;8.80;90.50;;;;;;5041611;28;21018;-58
2023/02/19 07:21:16;;;;;;;1.70;1.60;;;8.80;89.60;;;;;;5031682;28;20513;-57
2023/02/19 07:23:43;;;;;;;2.27;1.20;;;8.80;89.20;;;;;;5024315;28;20187;-58
2023/02/19 07:26:11;;;;;;;1.47;1.37;;;8.80;88.50;;;;;;5006589;28;20485;-58
2023/02/19 07:28:36;;;;;;;2.80;1.50;;;8.80;88.70;;;;;;5028883;28;20503;-58
2023/02/19 07:31:03;;;;;;;1.83;1.47;;;8.80;89.40;;;;;;5011351;28;20450;-58
2023/02/19 07:33:29;;;;;;;1.30;1.20;;;8.90;87.70;;;;;;5030885;28;20706;-59
2023/02/19 07:35:55;;;;;;;1.40;1.30;;;8.90;86.50;;;;;;5037198;28;20529;-59
2023/02/19 07:38:22;;;;;;;1.53;1.43;;;8.90;87.70;;;;;;5027197;28;20677;-57
2023/02/19 07:40:56;;;;;;;1.50;1.40;;;8.90;90.10;;;;;;5008026;28;20199;-55
2023/02/19 07:43:28;;;;;;;1.50;1.40;;;8.90;90.30;;;;;;5023039;28;21152;-54
2023/02/19 07:45:53;;;;;;;1.33;1.23;;;8.90;90.40;;;;;;5029441;28;20456;-58
2023/02/19 07:48:20;;;;;;;1.50;1.40;;;8.90;90.00;;;;;;5021797;28;20814;-54
2023/02/19 07:50:51;;;;;;;1.63;0.93;;;8.90;89.50;;;;;;5024021;28;20175;-54
2023/02/19 07:53:17;;;;;;;1.43;1.30;;;8.90;89.60;;;;;;5018826;28;20470;-56
2023/02/19 07:55:43;;;;;;;1.90;1.43;;;8.80;91.60;;;;;;5025107;28;20795;-57
2023/02/19 07:58:08;;;;;;;1.13;1.13;;;8.80;93.40;;;;;;5018865;28;20480;-56
2023/02/19 08:00:34;;;;;;;1.27;1.20;;;8.80;94.70;;;;;;5021617;28;20556;-56
2023/02/19 08:03:00;;;;;;;2.50;2.00;;;8.80;93.90;;;;;;5025449;28;20210;-54
2023/02/19 08:05:30;;;;;;;1.70;1.43;;;8.70;94.40;;;;;;5026004;28;20176;-57
2023/02/19 08:07:57;;;;;;;1.30;1.20;;;8.70;95.50;;;;;;5015380;28;20230;-57
2023/02/19 08:13:26;;;;;;;1.63;1.23;;;8.70;95.90;;;;;;5023593;28;20461;-57
2023/02/19 08:16:02;;;;;;;2.00;1.50;;;8.70;94.90;;;;;;5020728;28;21061;-58
2023/02/19 08:18:31;;;;;;;2.03;1.33;;;8.70;94.60;;;;;;5024134;28;20465;-57
2023/02/19 08:20:58;;;;;;;1.40;1.30;;;8.80;92.60;;;;;;5026008;28;20413;-58
2023/02/19 08:23:24;;;;;;;1.03;1.03;;;8.80;93.60;;;;;;5027441;28;20442;-58
2023/02/19 08:25:51;;;;;;;2.30;2.10;;;8.70;94.00;;;;;;5008781;28;20806;-58
2023/02/19 08:28:18;;;;;;;1.50;1.40;;;8.80;92.30;;;;;;5023444;28;20430;-58
2023/02/19 08:30:46;;;;;;;1.30;1.20;;;8.80;92.80;;;;;;5025706;28;21001;-53
2023/02/19 08:33:19;;;;;;;1.60;1.50;;;8.80;92.40;;;;;;5023861;28;20462;-53
2023/02/19 08:35:45;;;;;;;2.60;1.77;;;8.90;91.90;;;;;;5024816;28;20434;-54
2023/02/19 08:38:12;;;;;;;1.60;1.50;;;8.90;92.20;;;;;;5018235;28;20431;-55
2023/02/19 08:40:39;;;;;;;1.30;1.20;;;9.00;90.90;;;;;;5020960;28;20434;-52
2023/02/19 08:43:07;;;;;;;1.50;1.40;;;9.10;86.30;;;;;;5024450;28;20438;-52
2023/02/19 08:45:32;;;;;;;1.17;1.10;;;9.10;83.80;;;;;;5027593;28;20946;-57
2023/02/19 08:47:59;;;;;;;1.30;1.20;;;9.20;80.00;;;;;;5006496;28;20449;-57
2023/02/19 08:50:25;;;;;;;1.53;1.40;;;9.20;80.20;;;;;;5031422;28;20617;-59
2023/02/19 08:52:51;;;;;;;1.40;1.30;;;9.30;78.30;;;;;;5029903;28;20462;-59
2023/02/19 08:55:16;;;;;;;1.00;1.00;;;9.40;76.10;;;;;;5021092;28;20541;-62
2023/02/19 08:57:42;;;;;;;1.00;1.00;;;9.40;75.50;;;;;;5005271;28;20218;-60
2023/02/19 09:00:09;;;;;;;1.20;1.20;;;9.50;74.20;;;;;;5025602;28;20180;-56
2023/02/19 09:02:35;;;;;;;1.23;1.13;;;9.60;77.20;;;;;;5026617;28;20179;-56
2023/02/19 09:05:01;;;;;;;1.30;1.20;;;9.60;81.50;;;;;;5026122;28;20430;-57
2023/02/19 09:07:27;;;;;;;0.90;0.90;;;9.70;82.40;;;;;;5027713;28;20454;-58
2023/02/19 09:09:53;;;;;;;2.50;1.03;;;9.60;83.60;;;;;;5021245;28;20188;-58
2023/02/19 09:12:19;;;;;;;1.20;1.10;;;9.50;84.80;;;;;;5020563;28;20223;-53
2023/02/19 09:14:45;;;;;;;0.90;0.90;;;9.40;86.20;;;;;;5021749;28;20263;-58
2023/02/19 09:17:11;;;;;;;0.90;0.90;;;9.30;87.50;;;;;;5016844;28;21116;-57
2023/02/19 09:19:37;;;;;;;1.40;1.30;;;9.10;88.50;;;;;;5017881;28;20426;-58
2023/02/19 09:22:04;;;;;;;4.43;1.60;;;9.00;89.10;;;;;;5016766;28;20588;-58
2023/02/19 09:24:30;;;;;;;1.03;1.03;;;9.00;90.70;;;;;;5020407;28;20728;-58
2023/02/19 09:26:56;;;;;;;1.30;1.20;;;8.90;90.60;;;;;;5023366;28;20573;-58
2023/02/19 09:29:24;;;;;;;1.20;1.10;;;8.90;90.20;;;;;;5019197;28;20454;-58
2023/02/19 09:31:50;;;;;;;1.40;1.30;;;8.80;90.10;;;;;;5026455;28;20179;-58
2023/02/19 09:34:15;;;;;;;0.87;0.80;;;8.80;90.40;;;;;;5027088;28;20982;-58
2023/02/19 09:36:41;;;;;;;1.20;1.10;;;8.70;90.20;;;;;;5029234;28;20204;-59
2023/02/19 09:39:08;;;;;;;1.50;1.40;;;8.70;91.40;;;;;;5024207;28;20589;-58
2023/02/19 09:41:44;;;;;;;1.17;1.17;;;8.60;91.70;;;;;;5024455;28;20740;-58
2023/02/19 09:44:12;;;;;;;1.40;1.30;;;8.60;92.60;;;;;;5023472;28;20434;-59
2023/02/19 09:46:47;;;;;;;1.20;1.10;;;8.60;92.10;;;;;;5020338;28;20466;-59
2023/02/19 09:49:37;;;;;;;1.97;1.10;;;8.60;87.60;;;;;;5023201;28;20438;-58
2023/02/19 09:52:03;;;;;;;1.17;0.97;;;8.60;85.90;;;;;;5010869;28;20437;-58
2023/02/19 09:54:30;;;;;;;1.17;1.17;;;8.70;84.20;;;;;;5032035;28;20445;-58
2023/02/19 09:56:59;;;;;;;1.00;1.00;;;8.70;83.60;;;;;;5020073;28;20680;-57
2023/02/19 09:59:32;;;;;;;4.40;1.40;;;8.90;80.20;;;;;;5031151;28;20422;-57
2023/02/19 10:02:10;;;;;;;1.63;1.07;;;9.00;75.40;;;;;;5021221;28;20430;-58
2023/02/19 10:04:39;;;;;;;1.50;1.40;;;9.20;73.70;;;;;;5024595;28;20429;-57
2023/02/19 10:07:11;;;;;;;1.70;1.60;;;9.30;71.80;;;;;;5019421;28;20461;-57
2023/02/19 10:09:37;;;;;;;1.00;1.00;;;9.30;69.80;;;;;;5019817;28;20438;-58
2023/02/19 10:12:17;;;;;;;1.13;1.13;;;9.40;68.40;;;;;;5016012;28;20426;-59
2023/02/19 10:14:47;;;;;;;1.30;1.20;;;9.30;66.10;;;;;;5020326;28;20484;-59
2023/02/19 10:17:25;;;;;;;1.10;1.00;;;9.40;66.50;;;;;;5020811;28;20446;-58
2023/02/19 10:19:52;;;;;;;4.50;1.47;;;9.40;66.90;;;;;;5015636;28;20976;-55
2023/02/19 10:22:19;;;;;;;3.17;1.90;;;9.50;65.90;;;;;;5023794;28;20430;-56
2023/02/19 10:24:48;;;;;;;10.77;5.63;;;9.60;65.10;;;;;;5020981;28;20422;-52
2023/02/19 10:27:14;;;;;;;12.77;8.50;;;9.80;65.70;;;;;;5024093;28;20993;-57
2023/02/19 10:29:43;;;;;;;8.03;5.43;;;10.00;63.50;;;;;;5021619;28;20563;-54
2023/02/19 10:32:22;;;;;;;3.60;2.93;;;10.20;62.20;;;;;;5023117;28;20977;-57
2023/02/19 10:35:06;;;;;;;1.33;1.23;;;10.30;61.10;;;;;;5007059;28;20430;-53
2023/02/19 10:37:32;;;;;;;4.77;3.30;;;10.40;60.30;;;;;;5026233;28;20454;-55
2023/02/19 10:39:57;;;;;;;1.87;1.43;;;10.30;60.30;;;;;;5000284;28;20454;-57
2023/02/19 10:42:24;;;;;;;1.50;1.37;;;10.30;60.40;;;;;;5020450;28;20461;-55
2023/02/19 10:45:00;;;;;;;1.27;1.17;;;10.30;59.60;;;;;;5018776;28;20180;-57
2023/02/19 10:47:28;;;;;;;1.00;1.00;;;10.30;59.40;;;;;;5021040;28;20449;-59
2023/02/19 10:49:57;;;;;;;2.67;1.03;;;10.20;59.30;;;;;;5025962;28;20434;-57
2023/02/19 10:52:30;;;;;;;1.20;1.10;;;10.20;59.90;;;;;;5005379;28;21084;-57
2023/02/19 10:55:27;;;;;;;1.00;1.00;;;10.10;58.30;;;;;;5022174;28;20935;-58
2023/02/19 10:57:53;;;;;;;0.90;0.90;;;10.00;57.90;;;;;;5018550;28;20488;-56
2023/02/19 11:00:29;;;;;;;0.80;0.80;;;10.00;58.20;;;;;;5019490;28;20427;-57
2023/02/19 11:03:20;;;;;;;1.13;1.03;;;9.90;59.30;;;;;;5023513;28;20945;-61
2023/02/19 11:05:54;;;;;;;0.90;0.90;;;9.80;59.60;;;;;;5017391;28;20427;-60
2023/02/19 11:08:22;;;;;;;1.10;1.00;;;9.80;60.00;;;;;;5022935;28;20495;-59
2023/02/19 11:10:49;;;;;;;1.20;1.03;;;9.80;59.80;;;;;;5023422;28;20441;-59
2023/02/19 11:13:22;;;;;;;1.10;1.00;;;9.80;60.10;;;;;;5017112;28;20484;-59
2023/02/19 11:15:53;;;;;;;1.00;1.00;;;9.70;60.00;;;;;;5004192;28;20514;-59
2023/02/19 11:18:29;;;;;;;1.10;1.00;;;9.70;60.20;;;;;;5018573;28;20480;-60
2023/02/19 11:20:56;;;;;;;4.00;1.97;;;9.70;60.10;;;;;;5018524;28;20457;-59
2023/02/19 11:23:44;;;;;;;1.40;1.30;;;9.70;60.10;;;;;;5017076;28;20458;-58
2023/02/19 11:26:21;;;;;;;2.20;1.40;;;9.70;59.80;;;;;;5017289;28;20497;-58
2023/02/19 11:28:58;;;;;;;2.33;1.80;;;9.60;59.50;;;;;;5022878;28;20448;-58
2023/02/19 11:31:30;;;;;;;1.53;1.43;;;9.60;59.60;;;;;;5004860;28;20761;-58
2023/02/19 11:34:28;;;;;;;1.87;1.37;;;9.60;59.40;;;;;;5013956;28;20466;-57
2023/02/19 11:37:17;;;;;;;2.77;1.43;;;9.60;59.10;;;;;;5016056;28;20534;-57
2023/02/19 11:39:46;;;;;;;1.60;1.50;;;9.70;59.20;;;;;;5020235;28;20803;-57
2023/02/19 11:42:39;;;;;;;1.90;1.37;;;9.70;59.50;;;;;;5020777;28;20430;-59
2023/02/19 11:45:36;;;;;;;1.60;1.50;;;9.70;59.40;;;;;;5020756;28;20430;-58
2023/02/19 11:48:33;;;;;;;1.40;1.30;;;9.80;59.10;;;;;;5016854;28;20476;-58
2023/02/19 11:51:16;;;;;;;1.23;1.13;;;9.80;59.10;;;;;;5022341;28;20434;-59
2023/02/19 11:54:06;;;;;;;1.43;1.30;;;9.90;59.10;;;;;;5010499;28;20510;-58
2023/02/19 11:56:37;;;;;;;1.40;1.30;;;9.80;58.70;;;;;;5022152;28;20451;-58
2023/02/19 11:59:44;;;;;;;2.00;1.30;;;9.80;58.40;;;;;;5022858;28;20448;-58
2023/02/19 12:02:15;;;;;;;1.63;1.53;;;9.80;58.50;;;;;;4993831;28;20442;-58
2023/02/19 12:04:59;;;;;;;3.40;1.50;;;9.80;58.60;;;;;;5020429;28;20438;-58
2023/02/19 12:07:57;;;;;;;1.50;1.40;;;9.80;58.10;;;;;;5019256;28;21394;-58
2023/02/19 12:10:41;;;;;;;1.03;1.03;;;9.80;58.20;;;;;;5022566;28;20435;-58
2023/02/19 12:13:09;;;;;;;1.30;1.20;;;9.90;58.40;;;;;;5000552;28;20538;-58
2023/02/19 12:16:12;;;;;;;2.00;1.30;;;9.90;57.90;;;;;;5013567;28;20977;-59
2023/02/19 12:19:05;;;;;;;1.43;1.33;;;10.00;57.10;;;;;;5017806;28;20512;-58
2023/02/19 12:22:02;;;;;;;2.00;1.00;;;10.00;56.80;;;;;;5020388;28;21427;-60
2023/02/19 12:24:45;;;;;;;1.23;1.13;;;10.00;56.60;;;;;;5002660;28;21128;-59
2023/02/19 12:27:39;;;;;;;1.30;1.20;;;10.00;56.80;;;;;;5022060;28;20878;-58
2023/02/19 12:30:30;;;;;;;1.20;1.20;;;9.90;57.60;;;;;;5021276;28;20434;-58
2023/02/19 12:33:08;;;;;;;1.97;1.60;;;9.90;57.70;;;;;;5022082;28;20985;-58
2023/02/19 12:36:11;;;;;;;1.63;1.53;;;9.90;57.90;;;;;;5020430;28;20401;-58
2023/02/19 12:39:01;;;;;;;2.30;1.70;;;9.80;57.80;;;;;;5021875;28;20472;-58
2023/02/19 12:41:48;;;;;;;1.37;1.30;;;9.80;57.80;;;;;;5020827;28;20509;-59
2023/02/19 12:44:40;;;;;;;1.53;1.43;;;9.80;58.10;;;;;;5020133;28;20430;-58
2023/02/19 12:47:09;;;;;;;1.77;1.50;;;9.80;58.10;;;;;;5020061;28;20492;-57
2023/02/19 12:49:47;;;;;;;1.53;1.43;;;9.80;58.40;;;;;;5021387;28;20438;-58
2023/02/19 12:52:24;;;;;;;3.60;1.77;;;9.70;57.70;;;;;;5019972;28;20450;-59
2023/02/19 12:54:52;;;;;;;1.70;1.60;;;9.70;57.70;;;;;;5010334;28;20433;-58
2023/02/19 12:57:44;;;;;;;1.83;1.70;;;9.70;58.60;;;;;;5022274;28;20447;-58
2023/02/19 13:00:34;;;;;;;5.23;2.20;;;9.60;58.20;;;;;;5015263;28;20491;-58
2023/02/19 13:03:21;;;;;;;2.37;1.93;;;9.60;58.50;;;;;;5022798;28;20430;-58
2023/02/19 13:05:57;;;;;;;1.30;1.20;;;9.60;58.80;;;;;;5017753;28;20449;-59
2023/02/19 13:08:31;;;;;;;1.63;1.33;;;9.60;58.80;;;;;;5022381;28;20430;-58
2023/02/19 13:11:04;;;;;;;1.50;1.40;;;9.60;58.90;;;;;;5022947;28;20932;-58
2023/02/19 13:13:58;;;;;;;1.40;1.30;;;9.60;59.00;;;;;;5021083;28;21099;-58
2023/02/19 13:16:31;;;;;;;1.27;1.17;;;9.60;58.70;;;;;;5018785;28;20482;-58
2023/02/19 13:19:00;;;;;;;1.30;1.20;;;9.60;58.90;;;;;;5022280;28;20487;-58
2023/02/19 13:24:37;;;;;;;1.80;1.70;;;9.50;59.10;;;;;;5018664;28;20601;-57
2023/02/19 13:27:08;;;;;;;1.50;1.40;;;9.50;59.20;;;;;;5019510;28;20478;-58
2023/02/19 13:29:53;;;;;;;1.60;1.50;;;9.50;59.40;;;;;;5018519;28;20477;-58
2023/02/19 13:32:38;;;;;;;1.53;1.43;;;9.50;59.10;;;;;;5018671;28;20431;-58
2023/02/19 13:35:28;;;;;;;3.00;1.50;;;9.50;59.40;;;;;;5018072;28;20445;-58
2023/02/19 13:37:58;;;;;;;2.83;1.43;;;9.50;59.60;;;;;;5018994;28;21009;-59
2023/02/19 13:40:30;;;;;;;1.80;1.70;;;9.50;59.60;;;;;;5021784;28;20492;-58
2023/02/19 13:43:04;;;;;;;2.10;1.50;;;9.50;59.80;;;;;;5014875;28;20435;-59